Gazpromneft East — UBOF4 — position and weather

sailwx.info

Track history (hours):
 
Tides and Currents Weather Stations Pressure Air Temp Water Temp Dewpoint Dewpoint Depression Visibility Wind Speed Wind Dir Waves Ship Positions

Gazpromneft East

Last reported at 2017-May-23 14:00 UTC. Time now 2017-May-23 14:55 UTC.
Position N 59°57' E 028°48'.

Length 79 m; draft 5.2 m.

Type: Ship (hazmat cat B). MMSI: 273335320.

Date/timePositionNaut miles runAvg speedWind from/ knotsBaromVisibWave heightAir tempDewpointWater temp
2017-May-23 14:00N 59°57' E 028°48'611.4
2017-May-23 13:30N 59°60' E 028°58'711.2
2017-May-23 12:52N 60°02' E 029°12'711.1
2017-May-23 12:12N 60°02' E 029°26'311.0
2017-May-23 11:54N 60°01' E 029°33'410.3
2017-May-23 11:30N 59°60' E 029°41'5 9.8
2017-May-23 11:00N 59°57' E 029°49'510.1
2017-May-23 10:30N 59°56' E 029°59'5 9.5
2017-May-23 10:00N 59°54' E 030°08'3 5.6
2017-May-23 09:31N 59°53' E 030°13'0 0.7
2017-May-23 09:00N 59°53' E 030°13'0 0.0
2017-May-23 08:30N 59°53' E 030°13'0 0.0
2017-May-23 08:00N 59°53' E 030°13'0 0.0
2017-May-23 07:30N 59°53' E 030°13'0 0.0
2017-May-23 07:00N 59°53' E 030°13'0 0.0
2017-May-23 06:30N 59°53' E 030°13'0 0.0
2017-May-23 06:00N 59°53' E 030°13'0 0.0
2017-May-23 05:30N 59°53' E 030°13'0 0.0
2017-May-23 05:00N 59°53' E 030°13'0 0.0
2017-May-23 04:30N 59°53' E 030°13'0 0.0
2017-May-23 04:00N 59°53' E 030°13'0 0.0
2017-May-23 03:30N 59°53' E 030°13'0 0.0
2017-May-23 03:00N 59°53' E 030°13'0 0.0
2017-May-23 02:30N 59°53' E 030°13'0 0.0
2017-May-23 02:00N 59°53' E 030°13'0 0.0
2017-May-23 01:30N 59°53' E 030°13'0 0.0
2017-May-23 01:00N 59°53' E 030°13'0 0.0
2017-May-23 00:30N 59°53' E 030°13'0 0.0
2017-May-23 00:00N 59°53' E 030°13'0 0.0
2017-May-22 23:30N 59°53' E 030°13'0 0.0
2017-May-22 23:00N 59°53' E 030°13'0 0.0
2017-May-22 22:30N 59°53' E 030°13'0 0.0
2017-May-22 22:00N 59°53' E 030°13'0 0.0
2017-May-22 21:30N 59°53' E 030°13'3 5.3
2017-May-22 21:00N 59°54' E 030°08'611.4
2017-May-22 20:30N 59°56' E 029°58'611.3
2017-May-22 20:00N 59°58' E 029°47'2 4.5
2017-May-22 19:30N 59°56' E 029°46'0 0.0
2017-May-22 19:00N 59°56' E 029°46'0 0.0
2017-May-22 18:30N 59°56' E 029°46'0 0.0
2017-May-22 18:00N 59°56' E 029°46'0 0.0
2017-May-22 17:30N 59°56' E 029°46'0 0.0
2017-May-22 17:00N 59°56' E 029°46'0 0.0
2017-May-22 16:30N 59°56' E 029°46'0 0.0
2017-May-22 16:00N 59°56' E 029°46'0 0.0
2017-May-22 15:30N 59°56' E 029°46'0 0.0
2017-May-22 15:00N 59°56' E 029°46'3 3.4
2017-May-22 14:00N 59°59' E 029°45'4 8.5
2017-May-22 13:30N 60°00' E 029°37'510.3
2017-May-22 13:00N 60°01' E 029°27'4 7.0
2017-May-22 12:25N 60°01' E 029°18'4 8.4
2017-May-22 12:00N 60°01' E 029°11'611.8
2017-May-22 11:30N 59°60' E 029°00'611.8
2017-May-22 11:00N 59°57' E 028°50'611.4
2017-May-22 10:30N 59°54' E 028°40'611.7
2017-May-22 10:00N 59°52' E 028°30'510.7
2017-May-22 09:30N 59°47' E 028°25'1 1.1
2017-May-22 08:51N 59°46' E 028°25'0 0.1
2017-May-22 08:21N 59°46' E 028°25'5652.4
2017-May-22 07:17N 59°54' E 030°16'0 0.0
2017-May-22 07:00N 59°54' E 030°16'0 0.0
2017-May-22 06:30N 59°54' E 030°16'5693.5
2017-May-22 05:54N 59°46' E 028°25'0 0.1
2017-May-22 05:24N 59°46' E 028°25'0 0.0
2017-May-22 04:54N 59°46' E 028°25'0 0.1
2017-May-22 04:24N 59°46' E 028°25'0 0.0
2017-May-22 03:57N 59°46' E 028°25'0 0.0
2017-May-22 03:27N 59°46' E 028°25'0 0.0
2017-May-22 02:57N 59°46' E 028°25'0 0.0
2017-May-22 02:27N 59°46' E 028°25'0 0.0
2017-May-22 01:57N 59°46' E 028°25'0 0.0
2017-May-22 01:27N 59°46' E 028°25'0 0.0
2017-May-22 00:57N 59°46' E 028°25'0 0.0
2017-May-22 00:30N 59°46' E 028°25'0 0.0
2017-May-22 00:00N 59°46' E 028°25'0 0.1
2017-May-21 23:30N 59°46' E 028°25'0 0.1
2017-May-21 23:00N 59°46' E 028°25'0 0.1
2017-May-21 22:30N 59°46' E 028°25'0 0.1
2017-May-21 22:00N 59°46' E 028°25'0 0.1
2017-May-21 21:30N 59°46' E 028°25'0 0.1
2017-May-21 20:57N 59°46' E 028°25'0 0.1
2017-May-21 20:30N 59°46' E 028°25'0 0.0
2017-May-21 20:00N 59°46' E 028°25'0 0.0
2017-May-21 19:18N 59°46' E 028°25'0 0.0
2017-May-21 19:00N 59°46' E 028°25'0 0.0
2017-May-21 18:30N 59°46' E 028°25'0 0.0
2017-May-21 18:00N 59°46' E 028°25'0 0.0
2017-May-21 17:30N 59°46' E 028°25'0 0.0
2017-May-21 17:00N 59°46' E 028°25'0 0.0
2017-May-21 16:21N 59°46' E 028°25'0 0.0
2017-May-21 15:51N 59°46' E 028°25'0 0.1
2017-May-21 15:22N 59°46' E 028°25'1 1.5
2017-May-21 15:00N 59°47' E 028°25'0 0.1
2017-May-21 14:01N 59°47' E 028°25'0 0.1
2017-May-21 13:30N 59°47' E 028°25'0 0.1
2017-May-21 13:00N 59°47' E 028°25'1 1.1
2017-May-21 12:31N 59°47' E 028°25'611.2
2017-May-21 12:00N 59°52' E 028°31'3 7.0
2017-May-21 11:30N 59°54' E 028°36'0 0.0
2017-May-21 10:54N 59°54' E 028°36'0 0.0
2017-May-21 10:06N 59°54' E 028°36'0 0.0
2017-May-21 09:57N 59°54' E 028°36'0 0.0
2017-May-21 09:27N 59°54' E 028°36'0 0.0
2017-May-21 08:57N 59°54' E 028°36'0 0.0
2017-May-21 08:27N 59°54' E 028°36'0 0.1
2017-May-21 07:42N 59°54' E 028°36'0 0.0
2017-May-21 07:27N 59°54' E 028°36'0 0.0
2017-May-21 06:54N 59°54' E 028°36'0 0.1
2017-May-21 06:30N 59°54' E 028°36'0 0.0
2017-May-21 06:00N 59°54' E 028°36'0 0.0
2017-May-21 05:30N 59°54' E 028°36'0 0.0
2017-May-21 05:00N 59°54' E 028°36'0 0.1
2017-May-21 04:27N 59°54' E 028°36'0 0.0
2017-May-21 04:00N 59°54' E 028°36'0 0.0
2017-May-21 03:30N 59°54' E 028°36'0 0.0
2017-May-21 03:00N 59°54' E 028°36'0 0.0
2017-May-21 02:30N 59°54' E 028°36'0 0.0
2017-May-21 02:00N 59°54' E 028°36'0 0.0
2017-May-21 01:30N 59°54' E 028°36'0 0.0
2017-May-21 01:00N 59°54' E 028°36'0 0.0
2017-May-21 00:30N 59°54' E 028°36'0 0.0
2017-May-21 00:00N 59°54' E 028°36'0 0.0
2017-May-20 23:30N 59°54' E 028°36'0 0.0
2017-May-20 23:00N 59°54' E 028°36'0 0.0
2017-May-20 22:21N 59°54' E 028°36'0 0.0
2017-May-20 21:51N 59°54' E 028°36'0 0.0
2017-May-20 21:21N 59°54' E 028°36'0 0.0
2017-May-20 20:39N 59°54' E 028°36'0 0.0
2017-May-20 20:24N 59°54' E 028°36'0 0.0
2017-May-20 19:54N 59°54' E 028°36'0 0.0
2017-May-20 19:24N 59°54' E 028°36'0 0.0
2017-May-20 18:54N 59°54' E 028°36'0 0.0
2017-May-20 18:24N 59°54' E 028°36'0 0.0
2017-May-20 17:54N 59°54' E 028°36'0 0.0
2017-May-20 17:27N 59°54' E 028°36'0 0.0
2017-May-20 16:57N 59°54' E 028°36'0 0.0
2017-May-20 16:21N 59°54' E 028°36'0 0.0
2017-May-20 15:57N 59°54' E 028°36'0 0.0
2017-May-20 15:27N 59°54' E 028°36'0 0.0
2017-May-20 14:57N 59°54' E 028°36'0 0.0
2017-May-20 14:30N 59°54' E 028°36'0 0.0
2017-May-20 13:30N 59°54' E 028°36'0 0.0
2017-May-20 13:00N 59°54' E 028°36'0 0.0
2017-May-20 12:30N 59°54' E 028°36'0 0.0
2017-May-20 12:00N 59°54' E 028°36'0 0.0
2017-May-20 11:30N 59°54' E 028°36'0 0.1
2017-May-20 10:57N 59°54' E 028°36'1 3.4
2017-May-20 10:30N 59°55' E 028°39'510.4
2017-May-20 10:00N 59°57' E 028°48'611.6
2017-May-20 09:29N 59°60' E 028°59'1111.5
2017-May-20 08:31N 60°02' E 029°21'311.5
2017-May-20 08:14N 60°02' E 029°27'311.4
2017-May-20 08:00N 60°01' E 029°32'611.2
2017-May-20 07:30N 59°59' E 029°43'4 0.2
2017-May-19 14:54N 59°56' E 029°46'0 0.0
2017-May-19 14:00N 59°56' E 029°46'3 5.9
2017-May-19 13:30N 59°59' E 029°46'810.7
2017-May-19 12:43N 60°01' E 029°30'12 1.6
2017-May-19 05:16N 60°02' E 029°07'311.8
2017-May-19 05:00N 60°02' E 029°01'611.1
2017-May-19 04:30N 60°07' E 028°57'611.4
2017-May-19 04:00N 60°13' E 028°54'610.9
2017-May-19 03:28N 60°17' E 028°46'4 6.9
2017-May-19 02:55N 60°20' E 028°42'42 2.5
2017-May-18 10:07N 60°02' E 029°59'8 5.0
2017-May-18 08:33N 59°57' E 030°10'0 5.0
2017-May-18 08:30N 59°57' E 030°11'3 1.7
2017-May-18 06:54N 59°55' E 030°14'5310.9
2017-May-18 02:03N 60°20' E 028°42'0 0.0
2017-May-18 01:59N 60°20' E 028°42'1 0.3
2017-May-17 21:43N 60°19' E 028°40'0 0.1
2017-May-17 21:27N 60°19' E 028°40'6 9.9
2017-May-17 20:48N 60°15' E 028°50'1311.3
2017-May-17 19:38N 60°03' E 028°59'611.8
2017-May-17 19:07N 60°02' E 029°11'312.0
2017-May-17 18:54N 60°02' E 029°17'512.0
2017-May-17 18:30N 60°02' E 029°26'611.6
2017-May-17 18:00N 60°00' E 029°37'611.1
2017-May-17 17:30N 59°58' E 029°47'2 4.1
2017-May-17 17:00N 59°56' E 029°46'10 2.0
2017-May-17 11:59N 60°05' E 029°54'6 5.0
2017-May-17 10:45N 60°01' E 030°03'5 5.0
2017-May-17 09:47N 59°57' E 030°10'12 1.1
2017-May-16 23:12N 59°56' E 029°46'0 1.9
2017-May-16 23:00N 59°56' E 029°47'3 6.2
2017-May-16 22:30N 59°57' E 029°53'611.8
2017-May-16 22:00N 59°55' E 030°04'4 8.2
2017-May-16 21:30N 59°53' E 030°12'1 1.9
2017-May-16 20:58N 59°53' E 030°14'0 0.0
2017-May-16 20:28N 59°53' E 030°14'0 0.0
2017-May-16 19:58N 59°53' E 030°14'0 0.0
2017-May-16 19:28N 59°53' E 030°14'1 1.5
2017-May-16 19:00N 59°53' E 030°12'2 3.7
2017-May-16 18:28N 59°55' E 030°15'0 0.0
2017-May-16 17:58N 59°55' E 030°15'0 0.0
2017-May-16 17:28N 59°55' E 030°15'0 0.0
2017-May-16 16:58N 59°55' E 030°15'0 0.0
2017-May-16 16:28N 59°55' E 030°15'0 0.0
2017-May-16 15:58N 59°55' E 030°15'0 0.0
2017-May-16 15:28N 59°55' E 030°15'0 0.0
2017-May-16 14:58N 59°55' E 030°15'0 0.0
2017-May-16 13:58N 59°55' E 030°15'0 0.0
2017-May-16 13:28N 59°55' E 030°15'0 0.0
2017-May-16 12:58N 59°55' E 030°15'0 0.0
2017-May-16 12:29N 59°55' E 030°15'1 1.9
2017-May-16 12:00N 59°54' E 030°14'1 2.6
2017-May-16 11:30N 59°53' E 030°13'0 0.0
2017-May-16 11:00N 59°53' E 030°13'0 0.0
2017-May-16 10:30N 59°53' E 030°13'0 0.0
2017-May-16 10:00N 59°53' E 030°13'0 0.0
2017-May-16 09:30N 59°53' E 030°13'0 0.0
2017-May-16 09:00N 59°53' E 030°13'0 0.0
2017-May-16 08:30N 59°53' E 030°13'0 0.0
2017-May-16 08:00N 59°53' E 030°13'0 0.0
2017-May-16 07:30N 59°53' E 030°13'0 0.0
2017-May-16 07:00N 59°53' E 030°13'0 0.0
2017-May-16 06:30N 59°53' E 030°13'0 0.0
2017-May-16 06:00N 59°53' E 030°13'0 0.0
2017-May-16 05:30N 59°53' E 030°13'0 0.0
2017-May-16 05:00N 59°53' E 030°13'0 0.0
2017-May-16 04:30N 59°53' E 030°13'0 0.0
2017-May-16 04:00N 59°53' E 030°13'0 0.0
2017-May-16 03:30N 59°53' E 030°13'0 0.0
2017-May-16 03:00N 59°53' E 030°13'0 0.0
2017-May-16 02:30N 59°53' E 030°13'1 1.3
2017-May-16 02:01N 59°53' E 030°12'0 0.2
2017-May-16 01:29N 59°53' E 030°12'0 0.0
2017-May-16 00:59N 59°53' E 030°12'0 0.0
2017-May-16 00:29N 59°53' E 030°12'0 0.0
2017-May-15 23:59N 59°53' E 030°12'0 0.0
2017-May-15 23:29N 59°53' E 030°12'0 0.0
2017-May-15 22:59N 59°53' E 030°12'0 0.0
2017-May-15 22:29N 59°53' E 030°12'0 0.0
2017-May-15 21:59N 59°53' E 030°12'0 0.0
2017-May-15 21:29N 59°53' E 030°12'0 0.0
2017-May-15 20:59N 59°53' E 030°12'0 0.0
2017-May-15 20:29N 59°53' E 030°12'0 0.0
2017-May-15 19:59N 59°53' E 030°12'0 0.0
2017-May-15 19:29N 59°53' E 030°12'0 0.0
2017-May-15 18:59N 59°53' E 030°12'0 0.0
2017-May-15 18:29N 59°53' E 030°12'0 0.0
2017-May-15 18:00N 59°53' E 030°12'0 0.0
2017-May-15 17:30N 59°53' E 030°12'0 0.0
2017-May-15 17:00N 59°53' E 030°12'0 0.0
2017-May-15 16:30N 59°53' E 030°12'0 0.2
2017-May-15 16:00N 59°53' E 030°12'1 1.2
2017-May-15 15:29N 59°53' E 030°13'0 0.0
2017-May-15 14:59N 59°53' E 030°13'0 0.0
2017-May-15 13:59N 59°53' E 030°13'0 0.0
2017-May-15 13:29N 59°53' E 030°13'0 0.0
2017-May-15 12:59N 59°53' E 030°13'0 0.0
2017-May-15 12:29N 59°53' E 030°13'0 0.0
2017-May-15 11:59N 59°53' E 030°13'0 0.0
2017-May-15 11:23N 59°53' E 030°13'0 0.0
2017-May-15 10:59N 59°53' E 030°13'0 0.0
2017-May-15 10:29N 59°53' E 030°13'0 0.0
2017-May-15 09:59N 59°53' E 030°13'0 0.0
2017-May-15 09:26N 59°53' E 030°13'0 0.0
2017-May-15 08:59N 59°53' E 030°13'0 0.0
2017-May-15 08:29N 59°53' E 030°13'0 0.0
2017-May-15 07:59N 59°53' E 030°13'0 0.0
2017-May-15 07:29N 59°53' E 030°13'0 0.0
2017-May-15 06:59N 59°53' E 030°13'0 0.0
2017-May-15 06:29N 59°53' E 030°13'0 0.0
2017-May-15 05:59N 59°53' E 030°13'0 0.0
2017-May-15 05:29N 59°53' E 030°13'0 0.0
2017-May-15 04:59N 59°53' E 030°13'0 0.0
2017-May-15 04:29N 59°53' E 030°13'0 0.0
2017-May-15 03:59N 59°53' E 030°13'0 0.0
2017-May-15 03:29N 59°53' E 030°13'0 0.0
2017-May-15 02:59N 59°53' E 030°13'0 0.0
2017-May-15 02:29N 59°53' E 030°13'0 0.0
2017-May-15 01:59N 59°53' E 030°13'0 0.0
2017-May-15 01:29N 59°53' E 030°13'0 0.0
2017-May-15 00:59N 59°53' E 030°13'0 0.0
2017-May-15 00:29N 59°53' E 030°13'0 0.0
2017-May-14 23:59N 59°53' E 030°13'0 0.0
2017-May-14 23:29N 59°53' E 030°13'0 0.0
2017-May-14 22:59N 59°53' E 030°13'0 0.0
2017-May-14 22:29N 59°53' E 030°13'0 0.0
2017-May-14 21:59N 59°53' E 030°13'0 0.0
2017-May-14 21:29N 59°53' E 030°13'0 0.0
2017-May-14 20:59N 59°53' E 030°13'0 0.0
2017-May-14 20:29N 59°53' E 030°13'0 0.0
2017-May-14 19:56N 59°53' E 030°13'0 0.0
2017-May-14 19:26N 59°53' E 030°13'0 0.0
2017-May-14 18:59N 59°53' E 030°13'0 0.0
2017-May-14 18:29N 59°53' E 030°13'0 0.0
2017-May-14 17:59N 59°53' E 030°13'0 0.0
2017-May-14 17:29N 59°53' E 030°13'0 0.0
2017-May-14 16:59N 59°53' E 030°13'0 0.0
2017-May-14 16:29N 59°53' E 030°13'0 0.0
2017-May-14 15:59N 59°53' E 030°13'0 0.0
2017-May-14 15:29N 59°53' E 030°13'0 0.0
2017-May-14 14:59N 59°53' E 030°13'0 0.0
2017-May-14 14:29N 59°53' E 030°13'1 0.7
2017-May-14 13:30N 59°54' E 030°14'0 0.0
2017-May-14 13:01N 59°54' E 030°14'0 0.0
2017-May-14 12:30N 59°54' E 030°14'0 0.0
2017-May-14 12:00N 59°54' E 030°14'0 0.0
2017-May-14 11:30N 59°54' E 030°14'0 0.0
2017-May-14 11:00N 59°54' E 030°14'0 0.0
2017-May-14 10:30N 59°54' E 030°14'0 0.0
2017-May-14 10:00N 59°54' E 030°14'0 0.0
2017-May-14 09:30N 59°54' E 030°14'0 0.0
2017-May-14 09:00N 59°54' E 030°14'0 0.8
2017-May-14 08:30N 59°53' E 030°13'0 0.7
2017-May-14 07:59N 59°53' E 030°13'0 0.0
2017-May-14 07:29N 59°53' E 030°13'0 0.0
2017-May-14 06:59N 59°53' E 030°13'0 0.0
2017-May-14 06:23N 59°53' E 030°13'0 0.0
2017-May-14 05:59N 59°53' E 030°13'0 0.0
2017-May-14 05:30N 59°53' E 030°13'0 0.0
2017-May-14 05:00N 59°53' E 030°13'0 0.0
2017-May-14 04:30N 59°53' E 030°13'0 0.0
2017-May-14 04:00N 59°53' E 030°13'0 0.0
2017-May-14 03:31N 59°53' E 030°13'0 0.0
2017-May-14 03:00N 59°53' E 030°13'0 0.0
2017-May-14 02:31N 59°53' E 030°13'0 0.0
2017-May-14 02:00N 59°53' E 030°13'0 0.0
2017-May-14 01:30N 59°53' E 030°13'0 0.0
2017-May-14 01:01N 59°53' E 030°13'0 0.0
2017-May-14 00:30N 59°53' E 030°13'0 0.0
2017-May-14 00:00N 59°53' E 030°13'0 0.0
2017-May-13 23:30N 59°53' E 030°13'0 0.0
2017-May-13 23:00N 59°53' E 030°13'0 0.0
2017-May-13 22:30N 59°53' E 030°13'0 0.0
2017-May-13 22:00N 59°53' E 030°13'0 0.1
2017-May-13 21:30N 59°53' E 030°13'0 0.0
2017-May-13 21:01N 59°53' E 030°13'0 0.0
2017-May-13 20:30N 59°53' E 030°13'0 0.0
2017-May-13 20:01N 59°53' E 030°13'0 0.0
2017-May-13 19:31N 59°53' E 030°13'0 0.0
2017-May-13 19:00N 59°53' E 030°13'0 0.0
2017-May-13 18:30N 59°53' E 030°13'0 0.9
2017-May-13 18:00N 59°53' E 030°13'1 2.8
2017-May-13 17:30N 59°55' E 030°14'0 0.0
2017-May-13 17:00N 59°55' E 030°14'0 0.0
2017-May-13 16:27N 59°55' E 030°14'0 0.0
2017-May-13 16:00N 59°55' E 030°14'0 0.0
2017-May-13 15:30N 59°55' E 030°14'0 0.0
2017-May-13 15:00N 59°55' E 030°14'0 0.0
2017-May-13 14:30N 59°55' E 030°14'  
Track history (hours):
 
Tides and Currents Weather Stations Pressure Air Temp Water Temp Dewpoint Dewpoint Depression Visibility Wind Speed Wind Dir Waves Ship Positions

Gazpromneft East

Last reported at 2017-May-23 14:00 UTC. Time now 2017-May-23 14:55 UTC.
Position N 59°57' E 028°48'.

Length 79 m; draft 5.2 m.

Type: Ship (hazmat cat B). MMSI: 273335320.

Date/timePositionNaut miles runAvg speedWind from/ knotsBaromVisibWave heightAir tempDewpointWater temp
2017-May-23 14:00N 59°57' E 028°48'611.4
2017-May-23 13:30N 59°60' E 028°58'711.2
2017-May-23 12:52N 60°02' E 029°12'711.1
2017-May-23 12:12N 60°02' E 029°26'311.0
2017-May-23 11:54N 60°01' E 029°33'410.3
2017-May-23 11:30N 59°60' E 029°41'5 9.8
2017-May-23 11:00N 59°57' E 029°49'510.1
2017-May-23 10:30N 59°56' E 029°59'5 9.5
2017-May-23 10:00N 59°54' E 030°08'3 5.6
2017-May-23 09:31N 59°53' E 030°13'0 0.7
2017-May-23 09:00N 59°53' E 030°13'0 0.0
2017-May-23 08:30N 59°53' E 030°13'0 0.0
2017-May-23 08:00N 59°53' E 030°13'0 0.0
2017-May-23 07:30N 59°53' E 030°13'0 0.0
2017-May-23 07:00N 59°53' E 030°13'0 0.0
2017-May-23 06:30N 59°53' E 030°13'0 0.0
2017-May-23 06:00N 59°53' E 030°13'0 0.0
2017-May-23 05:30N 59°53' E 030°13'0 0.0
2017-May-23 05:00N 59°53' E 030°13'0 0.0
2017-May-23 04:30N 59°53' E 030°13'0 0.0
2017-May-23 04:00N 59°53' E 030°13'0 0.0
2017-May-23 03:30N 59°53' E 030°13'0 0.0
2017-May-23 03:00N 59°53' E 030°13'0 0.0
2017-May-23 02:30N 59°53' E 030°13'0 0.0
2017-May-23 02:00N 59°53' E 030°13'0 0.0
2017-May-23 01:30N 59°53' E 030°13'0 0.0
2017-May-23 01:00N 59°53' E 030°13'0 0.0
2017-May-23 00:30N 59°53' E 030°13'0 0.0
2017-May-23 00:00N 59°53' E 030°13'0 0.0
2017-May-22 23:30N 59°53' E 030°13'0 0.0
2017-May-22 23:00N 59°53' E 030°13'0 0.0
2017-May-22 22:30N 59°53' E 030°13'0 0.0
2017-May-22 22:00N 59°53' E 030°13'0 0.0
2017-May-22 21:30N 59°53' E 030°13'3 5.3
2017-May-22 21:00N 59°54' E 030°08'611.4
2017-May-22 20:30N 59°56' E 029°58'611.3
2017-May-22 20:00N 59°58' E 029°47'2 4.5
2017-May-22 19:30N 59°56' E 029°46'0 0.0
2017-May-22 19:00N 59°56' E 029°46'0 0.0
2017-May-22 18:30N 59°56' E 029°46'0 0.0
2017-May-22 18:00N 59°56' E 029°46'0 0.0
2017-May-22 17:30N 59°56' E 029°46'0 0.0
2017-May-22 17:00N 59°56' E 029°46'0 0.0
2017-May-22 16:30N 59°56' E 029°46'0 0.0
2017-May-22 16:00N 59°56' E 029°46'0 0.0
2017-May-22 15:30N 59°56' E 029°46'0 0.0
2017-May-22 15:00N 59°56' E 029°46'3 3.4
2017-May-22 14:00N 59°59' E 029°45'4 8.5
2017-May-22 13:30N 60°00' E 029°37'510.3
2017-May-22 13:00N 60°01' E 029°27'4 7.0
2017-May-22 12:25N 60°01' E 029°18'4 8.4
2017-May-22 12:00N 60°01' E 029°11'611.8
2017-May-22 11:30N 59°60' E 029°00'611.8
2017-May-22 11:00N 59°57' E 028°50'611.4
2017-May-22 10:30N 59°54' E 028°40'611.7
2017-May-22 10:00N 59°52' E 028°30'510.7
2017-May-22 09:30N 59°47' E 028°25'1 1.1
2017-May-22 08:51N 59°46' E 028°25'0 0.1
2017-May-22 08:21N 59°46' E 028°25'5652.4
2017-May-22 07:17N 59°54' E 030°16'0 0.0
2017-May-22 07:00N 59°54' E 030°16'0 0.0
2017-May-22 06:30N 59°54' E 030°16'5693.5
2017-May-22 05:54N 59°46' E 028°25'0 0.1
2017-May-22 05:24N 59°46' E 028°25'0 0.0
2017-May-22 04:54N 59°46' E 028°25'0 0.1
2017-May-22 04:24N 59°46' E 028°25'0 0.0
2017-May-22 03:57N 59°46' E 028°25'0 0.0
2017-May-22 03:27N 59°46' E 028°25'0 0.0
2017-May-22 02:57N 59°46' E 028°25'0 0.0
2017-May-22 02:27N 59°46' E 028°25'0 0.0
2017-May-22 01:57N 59°46' E 028°25'0 0.0
2017-May-22 01:27N 59°46' E 028°25'0 0.0
2017-May-22 00:57N 59°46' E 028°25'0 0.0
2017-May-22 00:30N 59°46' E 028°25'0 0.0
2017-May-22 00:00N 59°46' E 028°25'0 0.1
2017-May-21 23:30N 59°46' E 028°25'0 0.1
2017-May-21 23:00N 59°46' E 028°25'0 0.1
2017-May-21 22:30N 59°46' E 028°25'0 0.1
2017-May-21 22:00N 59°46' E 028°25'0 0.1
2017-May-21 21:30N 59°46' E 028°25'0 0.1
2017-May-21 20:57N 59°46' E 028°25'0 0.1
2017-May-21 20:30N 59°46' E 028°25'0 0.0
2017-May-21 20:00N 59°46' E 028°25'0 0.0
2017-May-21 19:18N 59°46' E 028°25'0 0.0
2017-May-21 19:00N 59°46' E 028°25'0 0.0
2017-May-21 18:30N 59°46' E 028°25'0 0.0
2017-May-21 18:00N 59°46' E 028°25'0 0.0
2017-May-21 17:30N 59°46' E 028°25'0 0.0
2017-May-21 17:00N 59°46' E 028°25'0 0.0
2017-May-21 16:21N 59°46' E 028°25'0 0.0
2017-May-21 15:51N 59°46' E 028°25'0 0.1
2017-May-21 15:22N 59°46' E 028°25'1 1.5
2017-May-21 15:00N 59°47' E 028°25'0 0.1
2017-May-21 14:01N 59°47' E 028°25'0 0.1
2017-May-21 13:30N 59°47' E 028°25'0 0.1
2017-May-21 13:00N 59°47' E 028°25'1 1.1
2017-May-21 12:31N 59°47' E 028°25'611.2
2017-May-21 12:00N 59°52' E 028°31'3 7.0
2017-May-21 11:30N 59°54' E 028°36'0 0.0
2017-May-21 10:54N 59°54' E 028°36'0 0.0
2017-May-21 10:06N 59°54' E 028°36'0 0.0
2017-May-21 09:57N 59°54' E 028°36'0 0.0
2017-May-21 09:27N 59°54' E 028°36'0 0.0
2017-May-21 08:57N 59°54' E 028°36'0 0.0
2017-May-21 08:27N 59°54' E 028°36'0 0.1
2017-May-21 07:42N 59°54' E 028°36'0 0.0
2017-May-21 07:27N 59°54' E 028°36'0 0.0
2017-May-21 06:54N 59°54' E 028°36'0 0.1
2017-May-21 06:30N 59°54' E 028°36'0 0.0
2017-May-21 06:00N 59°54' E 028°36'0 0.0
2017-May-21 05:30N 59°54' E 028°36'0 0.0
2017-May-21 05:00N 59°54' E 028°36'0 0.1
2017-May-21 04:27N 59°54' E 028°36'0 0.0
2017-May-21 04:00N 59°54' E 028°36'0 0.0
2017-May-21 03:30N 59°54' E 028°36'0 0.0
2017-May-21 03:00N 59°54' E 028°36'0 0.0
2017-May-21 02:30N 59°54' E 028°36'0 0.0
2017-May-21 02:00N 59°54' E 028°36'0 0.0
2017-May-21 01:30N 59°54' E 028°36'0 0.0
2017-May-21 01:00N 59°54' E 028°36'0 0.0
2017-May-21 00:30N 59°54' E 028°36'0 0.0
2017-May-21 00:00N 59°54' E 028°36'0 0.0
2017-May-20 23:30N 59°54' E 028°36'0 0.0
2017-May-20 23:00N 59°54' E 028°36'0 0.0
2017-May-20 22:21N 59°54' E 028°36'0 0.0
2017-May-20 21:51N 59°54' E 028°36'0 0.0
2017-May-20 21:21N 59°54' E 028°36'0 0.0
2017-May-20 20:39N 59°54' E 028°36'0 0.0
2017-May-20 20:24N 59°54' E 028°36'0 0.0
2017-May-20 19:54N 59°54' E 028°36'0 0.0
2017-May-20 19:24N 59°54' E 028°36'0 0.0
2017-May-20 18:54N 59°54' E 028°36'0 0.0
2017-May-20 18:24N 59°54' E 028°36'0 0.0
2017-May-20 17:54N 59°54' E 028°36'0 0.0
2017-May-20 17:27N 59°54' E 028°36'0 0.0
2017-May-20 16:57N 59°54' E 028°36'0 0.0
2017-May-20 16:21N 59°54' E 028°36'0 0.0
2017-May-20 15:57N 59°54' E 028°36'0 0.0
2017-May-20 15:27N 59°54' E 028°36'0 0.0
2017-May-20 14:57N 59°54' E 028°36'0 0.0
2017-May-20 14:30N 59°54' E 028°36'0 0.0
2017-May-20 13:30N 59°54' E 028°36'0 0.0
2017-May-20 13:00N 59°54' E 028°36'0 0.0
2017-May-20 12:30N 59°54' E 028°36'0 0.0
2017-May-20 12:00N 59°54' E 028°36'0 0.0
2017-May-20 11:30N 59°54' E 028°36'0 0.1
2017-May-20 10:57N 59°54' E 028°36'1 3.4
2017-May-20 10:30N 59°55' E 028°39'510.4
2017-May-20 10:00N 59°57' E 028°48'611.6
2017-May-20 09:29N 59°60' E 028°59'1111.5
2017-May-20 08:31N 60°02' E 029°21'311.5
2017-May-20 08:14N 60°02' E 029°27'311.4
2017-May-20 08:00N 60°01' E 029°32'611.2
2017-May-20 07:30N 59°59' E 029°43'4 0.2
2017-May-19 14:54N 59°56' E 029°46'0 0.0
2017-May-19 14:00N 59°56' E 029°46'3 5.9
2017-May-19 13:30N 59°59' E 029°46'810.7
2017-May-19 12:43N 60°01' E 029°30'12 1.6
2017-May-19 05:16N 60°02' E 029°07'311.8
2017-May-19 05:00N 60°02' E 029°01'611.1
2017-May-19 04:30N 60°07' E 028°57'611.4
2017-May-19 04:00N 60°13' E 028°54'610.9
2017-May-19 03:28N 60°17' E 028°46'4 6.9
2017-May-19 02:55N 60°20' E 028°42'42 2.5
2017-May-18 10:07N 60°02' E 029°59'8 5.0
2017-May-18 08:33N 59°57' E 030°10'0 5.0
2017-May-18 08:30N 59°57' E 030°11'3 1.7
2017-May-18 06:54N 59°55' E 030°14'5310.9
2017-May-18 02:03N 60°20' E 028°42'0 0.0
2017-May-18 01:59N 60°20' E 028°42'1 0.3
2017-May-17 21:43N 60°19' E 028°40'0 0.1
2017-May-17 21:27N 60°19' E 028°40'6 9.9
2017-May-17 20:48N 60°15' E 028°50'1311.3
2017-May-17 19:38N 60°03' E 028°59'611.8
2017-May-17 19:07N 60°02' E 029°11'312.0
2017-May-17 18:54N 60°02' E 029°17'512.0
2017-May-17 18:30N 60°02' E 029°26'611.6
2017-May-17 18:00N 60°00' E 029°37'611.1
2017-May-17 17:30N 59°58' E 029°47'2 4.1
2017-May-17 17:00N 59°56' E 029°46'10 2.0
2017-May-17 11:59N 60°05' E 029°54'6 5.0
2017-May-17 10:45N 60°01' E 030°03'5 5.0
2017-May-17 09:47N 59°57' E 030°10'12 1.1
2017-May-16 23:12N 59°56' E 029°46'0 1.9
2017-May-16 23:00N 59°56' E 029°47'3 6.2
2017-May-16 22:30N 59°57' E 029°53'611.8
2017-May-16 22:00N 59°55' E 030°04'4 8.2
2017-May-16 21:30N 59°53' E 030°12'1 1.9
2017-May-16 20:58N 59°53' E 030°14'0 0.0
2017-May-16 20:28N 59°53' E 030°14'0 0.0
2017-May-16 19:58N 59°53' E 030°14'0 0.0
2017-May-16 19:28N 59°53' E 030°14'1 1.5
2017-May-16 19:00N 59°53' E 030°12'2 3.7
2017-May-16 18:28N 59°55' E 030°15'0 0.0
2017-May-16 17:58N 59°55' E 030°15'0 0.0
2017-May-16 17:28N 59°55' E 030°15'0 0.0
2017-May-16 16:58N 59°55' E 030°15'0 0.0
2017-May-16 16:28N 59°55' E 030°15'0 0.0
2017-May-16 15:58N 59°55' E 030°15'0 0.0
2017-May-16 15:28N 59°55' E 030°15'0 0.0
2017-May-16 14:58N 59°55' E 030°15'0 0.0
2017-May-16 13:58N 59°55' E 030°15'0 0.0
2017-May-16 13:28N 59°55' E 030°15'0 0.0
2017-May-16 12:58N 59°55' E 030°15'0 0.0
2017-May-16 12:29N 59°55' E 030°15'1 1.9
2017-May-16 12:00N 59°54' E 030°14'1 2.6
2017-May-16 11:30N 59°53' E 030°13'0 0.0
2017-May-16 11:00N 59°53' E 030°13'0 0.0
2017-May-16 10:30N 59°53' E 030°13'0 0.0
2017-May-16 10:00N 59°53' E 030°13'0 0.0
2017-May-16 09:30N 59°53' E 030°13'0 0.0
2017-May-16 09:00N 59°53' E 030°13'0 0.0
2017-May-16 08:30N 59°53' E 030°13'0 0.0
2017-May-16 08:00N 59°53' E 030°13'0 0.0
2017-May-16 07:30N 59°53' E 030°13'0 0.0
2017-May-16 07:00N 59°53' E 030°13'0 0.0
2017-May-16 06:30N 59°53' E 030°13'0 0.0
2017-May-16 06:00N 59°53' E 030°13'0 0.0
2017-May-16 05:30N 59°53' E 030°13'0 0.0
2017-May-16 05:00N 59°53' E 030°13'0 0.0
2017-May-16 04:30N 59°53' E 030°13'0 0.0
2017-May-16 04:00N 59°53' E 030°13'0 0.0
2017-May-16 03:30N 59°53' E 030°13'0 0.0
2017-May-16 03:00N 59°53' E 030°13'0 0.0
2017-May-16 02:30N 59°53' E 030°13'1 1.3
2017-May-16 02:01N 59°53' E 030°12'0 0.2
2017-May-16 01:29N 59°53' E 030°12'0 0.0
2017-May-16 00:59N 59°53' E 030°12'0 0.0
2017-May-16 00:29N 59°53' E 030°12'0 0.0
2017-May-15 23:59N 59°53' E 030°12'0 0.0
2017-May-15 23:29N 59°53' E 030°12'0 0.0
2017-May-15 22:59N 59°53' E 030°12'0 0.0
2017-May-15 22:29N 59°53' E 030°12'0 0.0
2017-May-15 21:59N 59°53' E 030°12'0 0.0
2017-May-15 21:29N 59°53' E 030°12'0 0.0
2017-May-15 20:59N 59°53' E 030°12'0 0.0
2017-May-15 20:29N 59°53' E 030°12'0 0.0
2017-May-15 19:59N 59°53' E 030°12'0 0.0
2017-May-15 19:29N 59°53' E 030°12'0 0.0
2017-May-15 18:59N 59°53' E 030°12'0 0.0
2017-May-15 18:29N 59°53' E 030°12'0 0.0
2017-May-15 18:00N 59°53' E 030°12'0 0.0
2017-May-15 17:30N 59°53' E 030°12'0 0.0
2017-May-15 17:00N 59°53' E 030°12'0 0.0
2017-May-15 16:30N 59°53' E 030°12'0 0.2
2017-May-15 16:00N 59°53' E 030°12'1 1.2
2017-May-15 15:29N 59°53' E 030°13'0 0.0
2017-May-15 14:59N 59°53' E 030°13'0 0.0
2017-May-15 13:59N 59°53' E 030°13'0 0.0
2017-May-15 13:29N 59°53' E 030°13'0 0.0
2017-May-15 12:59N 59°53' E 030°13'0 0.0
2017-May-15 12:29N 59°53' E 030°13'0 0.0
2017-May-15 11:59N 59°53' E 030°13'0 0.0
2017-May-15 11:23N 59°53' E 030°13'0 0.0
2017-May-15 10:59N 59°53' E 030°13'0 0.0
2017-May-15 10:29N 59°53' E 030°13'0 0.0
2017-May-15 09:59N 59°53' E 030°13'0 0.0
2017-May-15 09:26N 59°53' E 030°13'0 0.0
2017-May-15 08:59N 59°53' E 030°13'0 0.0
2017-May-15 08:29N 59°53' E 030°13'0 0.0
2017-May-15 07:59N 59°53' E 030°13'0 0.0
2017-May-15 07:29N 59°53' E 030°13'0 0.0
2017-May-15 06:59N 59°53' E 030°13'0 0.0
2017-May-15 06:29N 59°53' E 030°13'0 0.0
2017-May-15 05:59N 59°53' E 030°13'0 0.0
2017-May-15 05:29N 59°53' E 030°13'0 0.0
2017-May-15 04:59N 59°53' E 030°13'0 0.0
2017-May-15 04:29N 59°53' E 030°13'0 0.0
2017-May-15 03:59N 59°53' E 030°13'0 0.0
2017-May-15 03:29N 59°53' E 030°13'0 0.0
2017-May-15 02:59N 59°53' E 030°13'0 0.0
2017-May-15 02:29N 59°53' E 030°13'0 0.0
2017-May-15 01:59N 59°53' E 030°13'0 0.0
2017-May-15 01:29N 59°53' E 030°13'0 0.0
2017-May-15 00:59N 59°53' E 030°13'0 0.0
2017-May-15 00:29N 59°53' E 030°13'0 0.0
2017-May-14 23:59N 59°53' E 030°13'0 0.0
2017-May-14 23:29N 59°53' E 030°13'0 0.0
2017-May-14 22:59N 59°53' E 030°13'0 0.0
2017-May-14 22:29N 59°53' E 030°13'0 0.0
2017-May-14 21:59N 59°53' E 030°13'0 0.0
2017-May-14 21:29N 59°53' E 030°13'0 0.0
2017-May-14 20:59N 59°53' E 030°13'0 0.0
2017-May-14 20:29N 59°53' E 030°13'0 0.0
2017-May-14 19:56N 59°53' E 030°13'0 0.0
2017-May-14 19:26N 59°53' E 030°13'0 0.0
2017-May-14 18:59N 59°53' E 030°13'0 0.0
2017-May-14 18:29N 59°53' E 030°13'0 0.0
2017-May-14 17:59N 59°53' E 030°13'0 0.0
2017-May-14 17:29N 59°53' E 030°13'0 0.0
2017-May-14 16:59N 59°53' E 030°13'0 0.0
2017-May-14 16:29N 59°53' E 030°13'0 0.0
2017-May-14 15:59N 59°53' E 030°13'0 0.0
2017-May-14 15:29N 59°53' E 030°13'0 0.0
2017-May-14 14:59N 59°53' E 030°13'0 0.0
2017-May-14 14:29N 59°53' E 030°13'1 0.7
2017-May-14 13:30N 59°54' E 030°14'0 0.0
2017-May-14 13:01N 59°54' E 030°14'0 0.0
2017-May-14 12:30N 59°54' E 030°14'0 0.0
2017-May-14 12:00N 59°54' E 030°14'0 0.0
2017-May-14 11:30N 59°54' E 030°14'0 0.0
2017-May-14 11:00N 59°54' E 030°14'0 0.0
2017-May-14 10:30N 59°54' E 030°14'0 0.0
2017-May-14 10:00N 59°54' E 030°14'0 0.0
2017-May-14 09:30N 59°54' E 030°14'0 0.0
2017-May-14 09:00N 59°54' E 030°14'0 0.8
2017-May-14 08:30N 59°53' E 030°13'0 0.7
2017-May-14 07:59N 59°53' E 030°13'0 0.0
2017-May-14 07:29N 59°53' E 030°13'0 0.0
2017-May-14 06:59N 59°53' E 030°13'0 0.0
2017-May-14 06:23N 59°53' E 030°13'0 0.0
2017-May-14 05:59N 59°53' E 030°13'0 0.0
2017-May-14 05:30N 59°53' E 030°13'0 0.0
2017-May-14 05:00N 59°53' E 030°13'0 0.0
2017-May-14 04:30N 59°53' E 030°13'0 0.0
2017-May-14 04:00N 59°53' E 030°13'0 0.0
2017-May-14 03:31N 59°53' E 030°13'0 0.0
2017-May-14 03:00N 59°53' E 030°13'0 0.0
2017-May-14 02:31N 59°53' E 030°13'0 0.0
2017-May-14 02:00N 59°53' E 030°13'0 0.0
2017-May-14 01:30N 59°53' E 030°13'0 0.0
2017-May-14 01:01N 59°53' E 030°13'0 0.0
2017-May-14 00:30N 59°53' E 030°13'0 0.0
2017-May-14 00:00N 59°53' E 030°13'0 0.0
2017-May-13 23:30N 59°53' E 030°13'0 0.0
2017-May-13 23:00N 59°53' E 030°13'0 0.0
2017-May-13 22:30N 59°53' E 030°13'0 0.0
2017-May-13 22:00N 59°53' E 030°13'0 0.1
2017-May-13 21:30N 59°53' E 030°13'0 0.0
2017-May-13 21:01N 59°53' E 030°13'0 0.0
2017-May-13 20:30N 59°53' E 030°13'0 0.0
2017-May-13 20:01N 59°53' E 030°13'0 0.0
2017-May-13 19:31N 59°53' E 030°13'0 0.0
2017-May-13 19:00N 59°53' E 030°13'0 0.0
2017-May-13 18:30N 59°53' E 030°13'0 0.9
2017-May-13 18:00N 59°53' E 030°13'1 2.8
2017-May-13 17:30N 59°55' E 030°14'0 0.0
2017-May-13 17:00N 59°55' E 030°14'0 0.0
2017-May-13 16:27N 59°55' E 030°14'0 0.0
2017-May-13 16:00N 59°55' E 030°14'0 0.0
2017-May-13 15:30N 59°55' E 030°14'0 0.0
2017-May-13 15:00N 59°55' E 030°14'0 0.0
2017-May-13 14:30N 59°55' E 030°14'  

Dump ship's entire track history